Orbital elements of ARIANE 5 R/B
| Launched | 19 December 2008 |
| Flight ended | – |
| Launch site | Europe's Spaceport, Kourou, French Guiana |
| Owner | France |
| NORAD ID | 33462 |
| Date fetched |
Epoch osculation |
Inc. [°] |
Ecc. | RA asc node [hr] |
Arg Peri. [°] |
Mean anom [°] |
Mean motion [rev/day] |
Abs. mag |
| Date fetched |
Epoch osculation |
Inc. [°] |
Ecc. | RA asc node [hr] |
Arg Peri. [°] |
Mean anom [°] |
Mean motion [rev/day] |
Abs. mag |
| 2026 May 01 17:56 | 2026 Apr 30 14:15:58 | 4.5507 | 0.70967 | 23.2826 | 288.4117 | 10.6877 | 2.50248 | 3.743 |
| 2026 Apr 30 17:56 | 2026 Apr 30 14:15:58 | 4.5507 | 0.70967 | 23.2826 | 288.4117 | 10.6877 | 2.50248 | 3.743 |
| 2026 Apr 29 17:57 | 2026 Apr 24 04:51:05 | 4.5623 | 0.70965 | 23.4552 | 282.9242 | 10.6877 | 2.50248 | 3.743 |
| 2026 Apr 28 17:56 | 2026 Apr 24 04:51:05 | 4.5623 | 0.70965 | 23.4552 | 282.9242 | 10.6877 | 2.50248 | 3.743 |
| 2026 Apr 27 17:58 | 2026 Apr 24 04:51:05 | 4.5623 | 0.70965 | 23.4552 | 282.9242 | 10.6877 | 2.50248 | 3.743 |
| 2026 Apr 26 17:58 | 2026 Apr 24 04:51:05 | 4.5623 | 0.70965 | 23.4552 | 282.9242 | 10.6877 | 2.50248 | 3.743 |
| 2026 Apr 25 17:58 | 2026 Apr 24 04:51:05 | 4.5623 | 0.70965 | 23.4552 | 282.9242 | 10.6877 | 2.50248 | 3.743 |
| 2026 Apr 24 17:59 | 2026 Apr 24 04:51:05 | 4.5623 | 0.70965 | 23.4552 | 282.9242 | 10.6877 | 2.50248 | 3.743 |
| 2026 Apr 23 17:57 | 2026 Apr 19 00:11:45 | 4.5663 | 0.70958 | 23.5931 | 278.4925 | 10.6877 | 2.50248 | 3.743 |
| 2026 Apr 22 17:57 | 2026 Apr 19 00:11:45 | 4.5663 | 0.70958 | 23.5931 | 278.4925 | 10.6877 | 2.50248 | 3.743 |
| 2026 Apr 21 17:57 | 2026 Apr 19 00:11:45 | 4.5663 | 0.70958 | 23.5931 | 278.4925 | 10.6877 | 2.50248 | 3.743 |
| 2026 Apr 20 17:57 | 2026 Apr 19 00:11:45 | 4.5663 | 0.70958 | 23.5931 | 278.4925 | 10.6877 | 2.50248 | 3.743 |
| 2026 Apr 19 17:58 | 2026 Apr 19 00:11:45 | 4.5663 | 0.70958 | 23.5931 | 278.4925 | 10.6877 | 2.50248 | 3.743 |
| 2026 Apr 18 17:56 | 2026 Apr 11 19:35:59 | 4.5711 | 0.70950 | 23.7861 | 272.3419 | 10.6877 | 2.50248 | 3.743 |
| 2026 Apr 16 17:57 | 2026 Apr 11 19:35:59 | 4.5711 | 0.70950 | 23.7861 | 272.3419 | 10.6877 | 2.50248 | 3.743 |
| 2026 Apr 14 17:57 | 2026 Apr 11 19:35:59 | 4.5711 | 0.70950 | 23.7861 | 272.3419 | 10.6877 | 2.50248 | 3.743 |
| 2026 Apr 13 17:57 | 2026 Apr 11 19:35:59 | 4.5711 | 0.70950 | 23.7861 | 272.3419 | 10.6877 | 2.50248 | 3.743 |
| 2026 Apr 12 17:57 | 2026 Apr 08 05:17:59 | 4.5718 | 0.70947 | 23.8853 | 269.2279 | 10.6877 | 2.50248 | 3.743 |
| 2026 Apr 11 17:57 | 2026 Apr 08 05:17:59 | 4.5718 | 0.70947 | 23.8853 | 269.2279 | 10.6877 | 2.50248 | 3.743 |
| 2026 Apr 10 17:58 | 2026 Apr 08 05:17:59 | 4.5718 | 0.70947 | 23.8853 | 269.2279 | 10.6877 | 2.50248 | 3.743 |
| 2026 Apr 09 18:01 | 2026 Apr 08 05:17:59 | 4.5718 | 0.70947 | 23.8853 | 269.2279 | 10.6877 | 2.50248 | 3.743 |
| 2026 Apr 08 17:57 | 2026 Apr 08 05:17:59 | 4.5718 | 0.70947 | 23.8853 | 269.2279 | 10.6877 | 2.50248 | 3.743 |
| 2026 Apr 07 17:57 | 2026 Apr 01 19:52:47 | 4.5726 | 0.70941 | 0.0620 | 263.6931 | 10.6877 | 2.50248 | 3.743 |
| 2026 Apr 06 17:57 | 2026 Apr 01 19:52:47 | 4.5726 | 0.70941 | 0.0620 | 263.6931 | 10.6877 | 2.50248 | 3.743 |
| 2026 Apr 05 17:56 | 2026 Apr 01 19:52:47 | 4.5726 | 0.70941 | 0.0620 | 263.6931 | 10.6877 | 2.50248 | 3.743 |
| 2026 Apr 04 17:57 | 2026 Apr 01 19:52:47 | 4.5726 | 0.70941 | 0.0620 | 263.6931 | 10.6877 | 2.50248 | 3.743 |